Emmett, Michigan
Current Conditions -  °F | °C
As of 12:16 AM on Sunday 26 Oct 2014 (Local Time) from KPHN Reporting Station
Clear Clear  
Wind Chill: 50°   Ceiling: Unl
Heat Index: 50°   Visibility: 10mi
Dew Point: 34°   Wind: 8mph
Humidity: 54%   Direction: 290°WNW
Pressure: 29.77"   Gusts: NA
Location:  42.99°N, 82.76°W
Report Text: KPHN 260416Z AUTO 29007KT 10SM CLR 10/01 A2977 RMK AO2
Loading
Personal Weather Stations






























Interactive Weather Map
Tropical Storm Tracking
New forecast layout! Learn more

10-Day Weather Forecast

Advertisements
Track Severe Weather on mobile